sensor_id;sensor_type;location;lat;lon;timestamp;P1;durP1;ratioP1;P2;durP2;ratioP2
29162;SDS011;20331;53.144;8.208;2022-11-11T00:07:43;12.57;;;3.27;;
29162;SDS011;20331;53.144;8.208;2022-11-11T00:18:04;10.93;;;2.97;;
29162;SDS011;20331;53.144;8.208;2022-11-11T00:28:46;9.40;;;2.83;;
29162;SDS011;20331;53.144;8.208;2022-11-11T00:39:07;14.73;;;3.00;;
29162;SDS011;20331;53.144;8.208;2022-11-11T00:49:29;9.80;;;3.00;;
29162;SDS011;20331;53.144;8.208;2022-11-11T01:00:09;8.25;;;2.70;;
29162;SDS011;20331;53.144;8.208;2022-11-11T01:10:31;12.38;;;3.00;;
29162;SDS011;20331;53.144;8.208;2022-11-11T01:21:12;13.45;;;3.38;;
29162;SDS011;20331;53.144;8.208;2022-11-11T01:31:36;14.30;;;3.33;;
29162;SDS011;20331;53.144;8.208;2022-11-11T01:52:32;10.57;;;4.68;;
29162;SDS011;20331;53.144;8.208;2022-11-11T02:02:59;8.55;;;4.55;;
29162;SDS011;20331;53.144;8.208;2022-11-11T02:13:26;11.35;;;4.90;;
29162;SDS011;20331;53.144;8.208;2022-11-11T02:24:07;7.55;;;4.47;;
29162;SDS011;20331;53.144;8.208;2022-11-11T02:34:33;11.35;;;4.78;;
29162;SDS011;20331;53.144;8.208;2022-11-11T02:44:55;11.60;;;4.72;;
29162;SDS011;20331;53.144;8.208;2022-11-11T02:55:19;10.27;;;4.72;;
29162;SDS011;20331;53.144;8.208;2022-11-11T03:05:40;15.30;;;5.05;;
29162;SDS011;20331;53.144;8.208;2022-11-11T03:16:02;12.95;;;5.10;;
29162;SDS011;20331;53.144;8.208;2022-11-11T03:36:45;10.40;;;4.83;;
29162;SDS011;20331;53.144;8.208;2022-11-11T03:47:26;14.10;;;6.13;;
29162;SDS011;20331;53.144;8.208;2022-11-11T03:57:47;13.17;;;5.33;;
29162;SDS011;20331;53.144;8.208;2022-11-11T04:08:13;17.40;;;5.68;;
29162;SDS011;20331;53.144;8.208;2022-11-11T04:18:54;11.43;;;5.88;;
29162;SDS011;20331;53.144;8.208;2022-11-11T04:29:35;11.90;;;6.00;;
29162;SDS011;20331;53.144;8.208;2022-11-11T04:39:57;12.90;;;6.47;;
29162;SDS011;20331;53.144;8.208;2022-11-11T04:50:41;13.32;;;6.70;;
29162;SDS011;20331;53.144;8.208;2022-11-11T05:01:03;11.15;;;7.45;;
29162;SDS011;20331;53.144;8.208;2022-11-11T05:11:29;14.17;;;8.23;;
29162;SDS011;20331;53.144;8.208;2022-11-11T05:21:51;18.73;;;9.00;;
29162;SDS011;20331;53.144;8.208;2022-11-11T05:32:16;18.42;;;9.13;;
29162;SDS011;20331;53.144;8.208;2022-11-11T05:42:39;20.13;;;9.45;;
29162;SDS011;20331;53.144;8.208;2022-11-11T05:53:10;18.37;;;9.23;;
29162;SDS011;20331;53.144;8.208;2022-11-11T06:03:32;20.50;;;10.37;;
29162;SDS011;20331;53.144;8.208;2022-11-11T06:13:53;26.67;;;10.43;;
29162;SDS011;20331;53.144;8.208;2022-11-11T06:24:15;22.48;;;10.35;;
29162;SDS011;20331;53.144;8.208;2022-11-11T06:34:37;22.13;;;11.10;;
29162;SDS011;20331;53.144;8.208;2022-11-11T06:44:58;20.87;;;11.03;;
29162;SDS011;20331;53.144;8.208;2022-11-11T06:55:20;20.23;;;10.80;;
29162;SDS011;20331;53.144;8.208;2022-11-11T07:05:42;22.08;;;11.55;;
29162;SDS011;20331;53.144;8.208;2022-11-11T07:16:05;23.33;;;10.80;;
29162;SDS011;20331;53.144;8.208;2022-11-11T07:26:26;19.67;;;10.80;;
29162;SDS011;20331;53.144;8.208;2022-11-11T07:36:48;21.20;;;10.53;;
29162;SDS011;20331;53.144;8.208;2022-11-11T07:47:09;23.00;;;11.20;;
29162;SDS011;20331;53.144;8.208;2022-11-11T07:57:31;20.70;;;10.67;;
29162;SDS011;20331;53.144;8.208;2022-11-11T08:07:52;23.07;;;11.63;;
29162;SDS011;20331;53.144;8.208;2022-11-11T08:18:14;17.13;;;10.67;;
29162;SDS011;20331;53.144;8.208;2022-11-11T08:28:36;20.00;;;11.40;;
29162;SDS011;20331;53.144;8.208;2022-11-11T08:38:57;24.30;;;11.40;;
29162;SDS011;20331;53.144;8.208;2022-11-11T08:49:19;22.95;;;11.25;;
29162;SDS011;20331;53.144;8.208;2022-11-11T08:59:40;19.47;;;11.87;;
29162;SDS011;20331;53.144;8.208;2022-11-11T09:10:02;22.97;;;11.93;;
29162;SDS011;20331;53.144;8.208;2022-11-11T09:20:24;20.55;;;12.27;;
29162;SDS011;20331;53.144;8.208;2022-11-11T09:30:46;23.50;;;12.70;;
29162;SDS011;20331;53.144;8.208;2022-11-11T09:41:11;22.77;;;12.53;;
29162;SDS011;20331;53.144;8.208;2022-11-11T10:02:38;25.38;;;12.15;;
29162;SDS011;20331;53.144;8.208;2022-11-11T10:13:10;23.33;;;11.85;;
29162;SDS011;20331;53.144;8.208;2022-11-11T10:23:34;19.02;;;10.77;;
29162;SDS011;20331;53.144;8.208;2022-11-11T10:33:59;20.20;;;11.23;;
29162;SDS011;20331;53.144;8.208;2022-11-11T10:44:31;20.80;;;10.85;;
29162;SDS011;20331;53.144;8.208;2022-11-11T10:54:58;16.30;;;10.70;;
29162;SDS011;20331;53.144;8.208;2022-11-11T11:16:51;14.35;;;9.20;;
29162;SDS011;20331;53.144;8.208;2022-11-11T11:27:11;14.07;;;8.30;;
29162;SDS011;20331;53.144;8.208;2022-11-11T11:37:47;16.73;;;7.55;;
29162;SDS011;20331;53.144;8.208;2022-11-11T11:59:10;18.13;;;9.23;;
29162;SDS011;20331;53.144;8.208;2022-11-11T12:20:16;11.38;;;6.20;;
29162;SDS011;20331;53.144;8.208;2022-11-11T12:30:39;10.77;;;5.05;;
29162;SDS011;20331;53.144;8.208;2022-11-11T13:23:45;7.90;;;3.30;;
29162;SDS011;20331;53.144;8.208;2022-11-11T13:34:10;3.88;;;2.63;;
29162;SDS011;20331;53.144;8.208;2022-11-11T13:44:35;9.07;;;3.10;;
29162;SDS011;20331;53.144;8.208;2022-11-11T13:55:20;4.63;;;2.35;;
29162;SDS011;20331;53.144;8.208;2022-11-11T14:06:01;8.98;;;2.78;;
29162;SDS011;20331;53.144;8.208;2022-11-11T14:27:01;8.15;;;2.58;;
29162;SDS011;20331;53.144;8.208;2022-11-11T14:48:00;5.78;;;2.00;;
29162;SDS011;20331;53.144;8.208;2022-11-11T14:58:25;6.50;;;2.13;;
29162;SDS011;20331;53.144;8.208;2022-11-11T15:19:42;5.43;;;1.90;;
29162;SDS011;20331;53.144;8.208;2022-11-11T15:30:12;4.40;;;2.03;;
29162;SDS011;20331;53.144;8.208;2022-11-11T15:40:44;5.13;;;2.30;;
29162;SDS011;20331;53.144;8.208;2022-11-11T15:51:25;5.80;;;2.35;;
29162;SDS011;20331;53.144;8.208;2022-11-11T16:01:49;5.18;;;2.40;;
29162;SDS011;20331;53.144;8.208;2022-11-11T16:12:15;5.45;;;2.10;;
29162;SDS011;20331;53.144;8.208;2022-11-11T16:22:39;8.90;;;2.65;;
29162;SDS011;20331;53.144;8.208;2022-11-11T16:33:17;7.10;;;2.55;;
29162;SDS011;20331;53.144;8.208;2022-11-11T16:43:48;7.10;;;2.50;;
29162;SDS011;20331;53.144;8.208;2022-11-11T16:54:11;4.03;;;2.05;;
29162;SDS011;20331;53.144;8.208;2022-11-11T17:04:49;8.50;;;3.25;;
29162;SDS011;20331;53.144;8.208;2022-11-11T17:15:13;9.05;;;3.33;;
29162;SDS011;20331;53.144;8.208;2022-11-11T17:25:35;5.70;;;3.45;;
29162;SDS011;20331;53.144;8.208;2022-11-11T17:35:57;9.87;;;5.13;;
29162;SDS011;20331;53.144;8.208;2022-11-11T17:46:18;13.65;;;5.53;;
29162;SDS011;20331;53.144;8.208;2022-11-11T17:56:40;24.90;;;12.07;;
29162;SDS011;20331;53.144;8.208;2022-11-11T18:07:01;30.47;;;17.67;;
29162;SDS011;20331;53.144;8.208;2022-11-11T18:17:23;21.48;;;9.13;;
29162;SDS011;20331;53.144;8.208;2022-11-11T18:38:06;18.50;;;7.07;;
29162;SDS011;20331;53.144;8.208;2022-11-11T18:48:28;19.73;;;7.90;;
29162;SDS011;20331;53.144;8.208;2022-11-11T18:58:50;12.67;;;7.30;;
29162;SDS011;20331;53.144;8.208;2022-11-11T19:09:13;15.85;;;7.57;;
29162;SDS011;20331;53.144;8.208;2022-11-11T19:19:35;14.03;;;6.80;;
29162;SDS011;20331;53.144;8.208;2022-11-11T19:29:56;11.83;;;6.50;;
29162;SDS011;20331;53.144;8.208;2022-11-11T19:40:18;12.83;;;6.73;;
29162;SDS011;20331;53.144;8.208;2022-11-11T19:50:40;12.77;;;6.63;;
29162;SDS011;20331;53.144;8.208;2022-11-11T20:11:31;18.48;;;9.73;;
29162;SDS011;20331;53.144;8.208;2022-11-11T20:21:53;19.42;;;10.52;;
29162;SDS011;20331;53.144;8.208;2022-11-11T20:32:15;21.37;;;10.13;;
29162;SDS011;20331;53.144;8.208;2022-11-11T20:42:37;17.25;;;9.25;;
29162;SDS011;20331;53.144;8.208;2022-11-11T21:03:19;16.93;;;7.93;;
29162;SDS011;20331;53.144;8.208;2022-11-11T21:13:41;12.97;;;8.13;;
29162;SDS011;20331;53.144;8.208;2022-11-11T21:24:06;15.43;;;8.60;;
29162;SDS011;20331;53.144;8.208;2022-11-11T21:34:28;14.30;;;7.75;;
29162;SDS011;20331;53.144;8.208;2022-11-11T21:44:50;16.43;;;8.30;;
29162;SDS011;20331;53.144;8.208;2022-11-11T21:55:11;13.27;;;8.37;;
29162;SDS011;20331;53.144;8.208;2022-11-11T22:05:33;15.30;;;8.10;;
29162;SDS011;20331;53.144;8.208;2022-11-11T22:16:05;16.80;;;8.80;;
29162;SDS011;20331;53.144;8.208;2022-11-11T22:26:38;15.73;;;9.00;;
29162;SDS011;20331;53.144;8.208;2022-11-11T22:37:01;13.52;;;8.70;;
29162;SDS011;20331;53.144;8.208;2022-11-11T22:47:24;18.75;;;9.07;;
29162;SDS011;20331;53.144;8.208;2022-11-11T22:57:45;10.57;;;8.10;;
29162;SDS011;20331;53.144;8.208;2022-11-11T23:08:07;17.23;;;8.70;;
29162;SDS011;20331;53.144;8.208;2022-11-11T23:18:28;16.30;;;8.43;;
29162;SDS011;20331;53.144;8.208;2022-11-11T23:28:50;11.90;;;7.00;;
29162;SDS011;20331;53.144;8.208;2022-11-11T23:39:12;8.88;;;5.95;;
29162;SDS011;20331;53.144;8.208;2022-11-11T23:49:33;8.03;;;5.17;;
29162;SDS011;20331;53.144;8.208;2022-11-11T23:59:55;7.87;;;5.47;;
